Time;durP1;ratioP1;P1;durP2;ratioP2;P2;SDS_P1;SDS_P2;PMS_P1;PMS_P2;Temp;Humidity;BMP_temperature;BMP_pressure;BME280_temperature;BME280_humidity;BME280_pressure;Samples;Min_cycle;Max_cycle;Signal;HPM_P1;HPM_P2
2022/10/27 00:01:53;;;;;;;71.90;51.10;;;19.20;80.10;;;;;;4944815;28;91882;-54
2022/10/27 00:04:19;;;;;;;72.88;50.83;;;19.20;80.10;;;;;;4954939;28;90045;-54
2022/10/27 00:06:51;;;;;;;72.05;51.15;;;19.20;80.10;;;;;;4955477;28;89966;-51
2022/10/27 00:09:17;;;;;;;72.40;51.35;;;19.20;80.10;;;;;;4960149;28;89455;-54
2022/10/27 00:11:42;;;;;;;73.10;51.13;;;19.20;80.20;;;;;;4954037;28;89287;-55
2022/10/27 00:14:08;;;;;;;72.47;51.03;;;19.20;80.20;;;;;;4951989;28;90279;-53
2022/10/27 00:16:34;;;;;;;73.57;51.50;;;19.20;80.20;;;;;;4953937;28;90503;-55
2022/10/27 00:19:00;;;;;;;73.65;51.25;;;19.20;80.10;;;;;;4955612;28;90805;-54
2022/10/27 00:21:26;;;;;;;72.63;51.17;;;19.20;80.30;;;;;;4947587;28;91179;-56
2022/10/27 00:23:52;;;;;;;71.82;50.95;;;19.20;80.10;;;;;;4957573;28;90507;-55
2022/10/27 00:26:20;;;;;;;72.07;50.70;;;19.20;80.10;;;;;;4952603;28;90046;-55
2022/10/27 00:28:46;;;;;;;71.53;50.80;;;19.20;80.10;;;;;;4945190;28;90320;-54
2022/10/27 00:31:19;;;;;;;72.95;51.20;;;19.20;80.10;;;;;;4954858;28;90032;-55
2022/10/27 00:33:47;;;;;;;72.05;51.30;;;19.10;80.10;;;;;;4955066;28;90999;-55
2022/10/27 00:36:23;;;;;;;72.65;51.03;;;19.10;80.10;;;;;;4955148;28;90501;-53
2022/10/27 00:38:52;;;;;;;72.22;50.75;;;19.20;80.10;;;;;;4945932;28;92891;-55
2022/10/27 00:41:29;;;;;;;72.82;50.95;;;19.10;80.10;;;;;;4952633;28;89817;-55
2022/10/27 00:43:59;;;;;;;71.70;50.83;;;19.10;80.10;;;;;;4952081;28;92842;-54
2022/10/27 00:46:38;;;;;;;73.15;51.15;;;19.10;80.00;;;;;;4952454;28;90862;-56
2022/10/27 00:49:13;;;;;;;72.07;51.13;;;19.10;80.10;;;;;;4945968;28;90234;-55
2022/10/27 00:51:42;;;;;;;71.82;50.95;;;19.10;80.10;;;;;;4957702;28;89993;-51
2022/10/27 00:54:09;;;;;;;71.68;50.95;;;19.10;80.10;;;;;;4951606;28;90255;-55
2022/10/27 00:56:36;;;;;;;72.10;50.97;;;19.10;80.00;;;;;;4958799;28;89745;-55
2022/10/27 00:59:03;;;;;;;73.53;51.33;;;19.10;80.00;;;;;;4943205;28;94626;-55
2022/10/27 01:01:29;;;;;;;72.03;50.80;;;19.10;80.00;;;;;;4952104;28;89538;-52
2022/10/27 01:03:55;;;;;;;71.90;51.05;;;19.10;80.00;;;;;;4946661;28;92104;-55
2022/10/27 01:06:22;;;;;;;71.55;50.85;;;19.10;80.00;;;;;;4952104;28;90239;-53
2022/10/27 01:08:50;;;;;;;71.63;50.65;;;19.10;80.00;;;;;;4950321;28;91022;-53
2022/10/27 01:11:16;;;;;;;71.68;50.95;;;19.10;80.00;;;;;;4954275;28;90492;-53
2022/10/27 01:13:42;;;;;;;71.65;50.85;;;19.10;80.00;;;;;;4943849;28;90097;-55
2022/10/27 01:16:32;;;;;;;72.53;51.15;;;19.10;80.00;;;;;;4959500;28;91011;-53
2022/10/27 01:19:28;;;;;;;71.88;50.83;;;19.00;80.00;;;;;;4935907;28;90735;-52
2022/10/27 01:22:07;;;;;;;71.65;50.58;;;19.00;80.10;;;;;;4951044;28;92337;-54
2022/10/27 01:24:35;;;;;;;71.35;50.33;;;19.00;80.00;;;;;;4954602;28;93859;-52
2022/10/27 01:27:06;;;;;;;71.30;50.70;;;19.00;80.00;;;;;;4952916;28;91998;-54
2022/10/27 01:29:53;;;;;;;71.85;50.90;;;19.00;80.00;;;;;;4952304;28;91205;-53
2022/10/27 01:32:41;;;;;;;72.57;50.90;;;19.00;80.00;;;;;;4955470;28;90033;-54
2022/10/27 01:35:38;;;;;;;72.43;50.65;;;19.00;80.10;;;;;;4950906;28;91796;-53
2022/10/27 01:38:28;;;;;;;71.45;50.40;;;19.00;80.00;;;;;;4955223;28;91711;-51
2022/10/27 01:41:15;;;;;;;71.60;50.92;;;19.00;80.10;;;;;;4953963;28;89832;-55
2022/10/27 01:43:45;;;;;;;71.20;51.05;;;19.00;80.20;;;;;;4952483;28;90041;-52
2022/10/27 01:46:12;;;;;;;72.38;50.85;;;19.00;80.10;;;;;;4955377;28;90981;-53
2022/10/27 01:48:38;;;;;;;71.63;50.72;;;19.00;80.00;;;;;;4950628;28;90288;-54
2022/10/27 01:51:07;;;;;;;71.35;51.08;;;19.00;80.10;;;;;;4949259;28;90167;-55
2022/10/27 01:53:40;;;;;;;72.13;50.88;;;18.90;80.00;;;;;;4953194;28;89243;-53
2022/10/27 01:56:21;;;;;;;73.03;50.55;;;19.00;80.10;;;;;;4955127;28;90578;-53
2022/10/27 01:58:58;;;;;;;72.23;51.07;;;19.00;80.00;;;;;;4950009;28;94602;-52
2022/10/27 02:01:48;;;;;;;72.05;50.75;;;19.00;80.10;;;;;;4952317;28;91276;-52
2022/10/27 02:04:15;;;;;;;70.93;50.38;;;18.90;80.10;;;;;;4951084;28;89921;-55
2022/10/27 02:06:52;;;;;;;72.32;51.00;;;19.00;80.10;;;;;;4953291;28;90296;-54
2022/10/27 02:09:25;;;;;;;71.28;50.85;;;18.90;80.00;;;;;;4952163;28;93230;-53
2022/10/27 02:11:53;;;;;;;71.55;51.03;;;18.90;80.10;;;;;;4954712;28;89864;-53
2022/10/27 02:14:20;;;;;;;71.63;51.00;;;18.90;80.10;;;;;;4948627;28;89957;-55
2022/10/27 02:16:52;;;;;;;71.72;50.60;;;18.90;80.00;;;;;;4952679;28;91251;-55
2022/10/27 02:19:26;;;;;;;72.15;51.15;;;18.90;80.10;;;;;;4945648;28;89399;-53
2022/10/27 02:21:56;;;;;;;72.13;50.92;;;18.90;80.10;;;;;;4959130;28;90051;-52
2022/10/27 02:24:22;;;;;;;70.90;50.58;;;18.90;80.00;;;;;;4952552;28;89750;-54
2022/10/27 02:27:12;;;;;;;72.22;50.88;;;18.90;80.10;;;;;;4953121;28;93098;-53
2022/10/27 02:29:47;;;;;;;70.70;50.30;;;18.90;80.10;;;;;;4949085;28;91916;-54
2022/10/27 02:32:17;;;;;;;71.93;51.00;;;18.80;80.10;;;;;;4947258;28;89884;-53
2022/10/27 02:34:44;;;;;;;70.70;50.45;;;18.80;80.10;;;;;;4954017;28;91521;-54
2022/10/27 02:37:18;;;;;;;72.70;50.60;;;18.80;80.10;;;;;;4955772;28;90671;-55
2022/10/27 02:39:43;;;;;;;71.10;50.53;;;18.80;80.10;;;;;;4948535;28;90477;-55
2022/10/27 02:42:09;;;;;;;72.07;51.03;;;18.80;80.10;;;;;;4952440;28;90596;-55
2022/10/27 02:44:34;;;;;;;72.50;50.95;;;18.80;80.20;;;;;;4953453;28;90160;-53
2022/10/27 02:47:00;;;;;;;71.82;50.85;;;18.80;80.10;;;;;;4949750;28;90314;-54
2022/10/27 02:49:26;;;;;;;71.57;50.92;;;18.80;80.10;;;;;;4943167;28;94250;-54
2022/10/27 02:51:51;;;;;;;71.63;50.72;;;18.80;80.10;;;;;;4952450;28;95571;-54
2022/10/27 02:54:17;;;;;;;71.03;50.72;;;18.80;80.10;;;;;;4954591;28;89879;-53
2022/10/27 02:56:42;;;;;;;71.20;50.70;;;18.80;80.10;;;;;;4951037;28;90357;-53
2022/10/27 02:59:08;;;;;;;71.35;50.70;;;18.80;80.10;;;;;;4951343;28;90362;-55
2022/10/27 03:01:33;;;;;;;71.40;50.75;;;18.80;80.10;;;;;;4952259;28;90893;-53
2022/10/27 03:03:59;;;;;;;72.07;51.00;;;18.80;80.10;;;;;;4956946;28;89917;-52
2022/10/27 03:06:25;;;;;;;71.45;50.65;;;18.80;80.20;;;;;;4956331;28;89952;-52
2022/10/27 03:08:50;;;;;;;72.38;50.90;;;18.80;80.10;;;;;;4950620;28;89366;-55
2022/10/27 03:11:17;;;;;;;72.22;51.15;;;18.70;80.10;;;;;;4945441;28;90271;-52
2022/10/27 03:13:42;;;;;;;70.82;50.72;;;18.80;80.20;;;;;;4953599;28;91506;-55
2022/10/27 03:16:08;;;;;;;71.03;50.72;;;18.70;80.20;;;;;;4950260;28;94625;-51
2022/10/27 03:18:34;;;;;;;71.25;50.50;;;18.70;80.10;;;;;;4956204;28;91097;-53
2022/10/27 03:20:59;;;;;;;70.80;50.95;;;18.70;80.10;;;;;;4950099;28;90205;-53
2022/10/27 03:23:25;;;;;;;70.70;50.60;;;18.70;80.10;;;;;;4957210;28;90011;-56
2022/10/27 03:25:51;;;;;;;71.03;50.53;;;18.70;80.00;;;;;;4952197;28;95164;-56
2022/10/27 03:28:16;;;;;;;72.10;50.58;;;18.70;80.00;;;;;;4957651;28;90282;-55
2022/10/27 03:30:42;;;;;;;71.13;50.47;;;18.70;80.00;;;;;;4955942;28;90642;-54
2022/10/27 03:33:08;;;;;;;72.15;50.75;;;18.70;80.80;;;;;;4959346;28;89918;-52
2022/10/27 03:35:33;;;;;;;71.75;50.83;;;18.70;80.00;;;;;;4958916;28;94970;-55
2022/10/27 03:38:00;;;;;;;71.53;50.75;;;18.70;80.00;;;;;;4955464;28;89999;-54
2022/10/27 03:40:27;;;;;;;70.85;50.70;;;18.70;80.00;;;;;;4959114;28;91127;-54
2022/10/27 03:42:57;;;;;;;71.13;50.65;;;18.80;80.10;;;;;;4959889;28;90495;-56
2022/10/27 03:45:24;;;;;;;71.70;50.65;;;18.70;80.00;;;;;;4950280;28;93119;-55
2022/10/27 03:47:59;;;;;;;70.82;50.55;;;18.70;80.00;;;;;;4949594;28;90103;-54
2022/10/27 03:50:24;;;;;;;70.85;50.60;;;18.70;80.00;;;;;;4945507;28;92653;-55
2022/10/27 03:52:50;;;;;;;71.22;50.70;;;18.70;79.90;;;;;;4951131;28;90608;-52
2022/10/27 03:55:15;;;;;;;71.97;51.08;;;18.70;80.00;;;;;;4942777;28;95739;-53
2022/10/27 03:57:41;;;;;;;71.18;50.25;;;18.70;80.00;;;;;;4950631;28;89558;-52
2022/10/27 04:00:07;;;;;;;71.97;50.72;;;18.70;80.00;;;;;;4950253;28;91308;-54
2022/10/27 04:02:33;;;;;;;72.88;50.50;;;18.70;80.00;;;;;;4953951;28;89725;-52
2022/10/27 04:04:59;;;;;;;70.57;50.55;;;18.70;80.10;;;;;;4964334;28;92223;-55
2022/10/27 04:07:24;;;;;;;71.03;50.63;;;18.70;80.00;;;;;;4956857;28;91464;-54
2022/10/27 04:09:50;;;;;;;70.38;50.50;;;18.70;80.00;;;;;;4955547;28;89741;-53
2022/10/27 04:12:15;;;;;;;71.13;50.60;;;18.70;80.00;;;;;;4951217;28;90143;-54
2022/10/27 04:14:41;;;;;;;71.30;50.35;;;18.70;80.80;;;;;;4956785;28;90571;-52
2022/10/27 04:17:07;;;;;;;70.78;50.45;;;18.70;80.10;;;;;;4956956;28;91793;-55
2022/10/27 04:19:32;;;;;;;70.47;50.35;;;18.70;80.00;;;;;;4963440;28;89829;-53
2022/10/27 04:21:58;;;;;;;70.53;50.45;;;18.70;80.10;;;;;;4951030;28;92307;-55
2022/10/27 04:24:24;;;;;;;70.88;50.58;;;18.70;80.00;;;;;;4953784;28;92208;-55
2022/10/27 04:26:49;;;;;;;71.35;50.70;;;18.70;80.00;;;;;;4943603;28;91903;-54
2022/10/27 04:29:15;;;;;;;71.03;50.65;;;18.60;80.00;;;;;;4952913;28;91280;-56
2022/10/27 04:31:40;;;;;;;71.22;50.72;;;18.60;80.00;;;;;;4949986;28;89821;-55
2022/10/27 04:34:06;;;;;;;72.25;50.63;;;18.70;80.10;;;;;;4955079;28;90300;-56
2022/10/27 04:36:32;;;;;;;71.05;50.47;;;18.60;80.00;;;;;;4950577;28;95078;-54
2022/10/27 04:38:57;;;;;;;70.85;50.42;;;18.70;80.20;;;;;;4954711;28;90205;-55
2022/10/27 04:41:23;;;;;;;71.60;50.60;;;18.60;80.00;;;;;;4948559;28;92065;-56
2022/10/27 04:43:50;;;;;;;70.82;50.20;;;18.70;80.10;;;;;;4956441;28;90684;-53
2022/10/27 04:46:16;;;;;;;70.80;50.30;;;18.70;80.10;;;;;;4950549;28;89278;-56
2022/10/27 04:48:41;;;;;;;71.55;50.53;;;18.60;80.10;;;;;;4958933;28;91257;-56
2022/10/27 04:51:07;;;;;;;71.75;50.95;;;18.60;80.10;;;;;;4958169;28;90492;-56
2022/10/27 04:53:33;;;;;;;72.63;51.00;;;18.60;80.10;;;;;;4946037;28;91543;-54
2022/10/27 04:55:58;;;;;;;70.97;51.03;;;18.60;80.30;;;;;;4948645;28;94872;-52
2022/10/27 04:58:24;;;;;;;71.93;50.75;;;18.60;80.20;;;;;;4957886;28;90772;-53
2022/10/27 05:00:50;;;;;;;71.72;50.83;;;18.60;80.10;;;;;;4955289;28;89990;-55
2022/10/27 05:03:15;;;;;;;72.15;50.85;;;18.60;80.30;;;;;;4948867;28;90217;-54
2022/10/27 05:05:41;;;;;;;72.75;50.83;;;18.60;80.20;;;;;;4956986;28;90573;-53
2022/10/27 05:08:09;;;;;;;71.45;50.53;;;18.60;80.10;;;;;;4945708;28;89790;-55
2022/10/27 05:10:34;;;;;;;71.47;50.53;;;18.60;80.10;;;;;;4950916;28;91072;-54
2022/10/27 05:13:01;;;;;;;72.35;50.83;;;18.60;80.10;;;;;;4960546;28;90632;-56
2022/10/27 05:15:26;;;;;;;72.20;51.20;;;18.60;80.10;;;;;;4948776;28;90591;-56
2022/10/27 05:17:52;;;;;;;71.45;50.88;;;18.60;80.20;;;;;;4948219;28;91729;-54
2022/10/27 05:20:18;;;;;;;71.43;50.70;;;18.60;80.10;;;;;;4950946;28;90584;-53
2022/10/27 05:22:44;;;;;;;70.90;50.53;;;18.60;80.10;;;;;;4955632;28;89940;-54
2022/10/27 05:25:10;;;;;;;72.18;50.67;;;18.60;80.10;;;;;;4956691;28;90128;-55
2022/10/27 05:27:36;;;;;;;71.82;50.72;;;18.60;80.20;;;;;;4948221;28;89899;-56
2022/10/27 05:30:03;;;;;;;73.75;50.75;;;18.60;80.30;;;;;;4952387;28;89941;-54
2022/10/27 05:32:29;;;;;;;72.28;50.85;;;18.60;80.20;;;;;;4949217;28;90071;-54
2022/10/27 05:34:55;;;;;;;71.57;50.60;;;18.60;80.10;;;;;;4944433;28;90533;-55
2022/10/27 05:37:20;;;;;;;73.72;50.72;;;18.60;80.10;;;;;;4951767;28;90004;-54
2022/10/27 05:39:46;;;;;;;71.88;50.72;;;18.60;80.10;;;;;;4954113;28;89994;-52
2022/10/27 05:42:11;;;;;;;72.85;50.92;;;18.60;80.10;;;;;;4947472;28;91171;-55
2022/10/27 05:44:37;;;;;;;70.78;50.65;;;18.60;80.10;;;;;;4948955;28;91743;-56
2022/10/27 05:47:03;;;;;;;70.38;50.40;;;18.50;80.10;;;;;;4943156;28;89932;-53
2022/10/27 05:49:28;;;;;;;71.65;50.63;;;18.50;80.10;;;;;;4953568;28;89983;-54
2022/10/27 05:51:54;;;;;;;70.53;50.78;;;18.50;80.10;;;;;;4953721;28;90223;-56
2022/10/27 05:54:19;;;;;;;71.28;50.60;;;18.50;80.10;;;;;;4956219;28;89841;-55
2022/10/27 05:56:48;;;;;;;71.22;50.83;;;18.50;80.10;;;;;;4961342;28;89669;-55
2022/10/27 05:59:13;;;;;;;71.45;50.58;;;18.50;80.10;;;;;;4951017;28;89332;-55
2022/10/27 06:01:39;;;;;;;72.90;50.85;;;18.50;80.00;;;;;;4952710;28;92521;-54
2022/10/27 06:04:04;;;;;;;71.50;50.75;;;18.50;80.10;;;;;;4949323;28;92306;-55
2022/10/27 06:06:30;;;;;;;73.80;50.60;;;18.50;80.20;;;;;;4955744;28;91048;-54
2022/10/27 06:08:56;;;;;;;71.35;50.78;;;18.50;80.00;;;;;;4954449;28;89924;-54
2022/10/27 06:11:21;;;;;;;73.30;50.88;;;18.50;80.00;;;;;;4949895;28;90171;-56
2022/10/27 06:13:51;;;;;;;72.20;50.75;;;18.50;80.20;;;;;;4944428;28;91123;-56
2022/10/27 06:16:19;;;;;;;71.70;50.63;;;18.50;79.90;;;;;;4947882;28;89908;-54
2022/10/27 06:18:45;;;;;;;73.18;51.42;;;18.60;80.80;;;;;;4920363;28;92758;-53
2022/10/27 06:21:10;;;;;;;75.05;51.10;;;18.90;80.80;;;;;;4933624;28;93852;-54
2022/10/27 06:23:36;;;;;;;75.70;50.72;;;19.00;80.20;;;;;;4939090;28;90550;-50
2022/10/27 06:26:03;;;;;;;75.10;51.03;;;19.00;79.90;;;;;;4943532;28;90006;-54
2022/10/27 06:28:29;;;;;;;73.75;51.38;;;19.00;80.20;;;;;;4930539;28;92367;-51
2022/10/27 06:30:54;;;;;;;73.07;51.47;;;19.00;80.20;;;;;;4934801;28;93548;-55
2022/10/27 06:33:20;;;;;;;78.07;51.70;;;19.10;80.60;;;;;;4947307;28;92222;-56
2022/10/27 06:35:46;;;;;;;76.05;51.63;;;19.10;80.30;;;;;;4951371;28;91147;-55
2022/10/27 06:38:15;;;;;;;76.57;51.65;;;19.10;80.70;;;;;;4945858;28;91382;-54
2022/10/27 06:40:42;;;;;;;78.40;51.45;;;19.20;80.30;;;;;;4945708;28;90274;-55
2022/10/27 06:43:08;;;;;;;76.95;51.72;;;19.20;80.40;;;;;;4947581;28;90235;-56
2022/10/27 06:45:35;;;;;;;74.72;51.20;;;19.20;80.40;;;;;;4947185;28;90911;-56
2022/10/27 06:48:01;;;;;;;75.40;51.25;;;19.10;80.40;;;;;;4948341;28;92467;-57
2022/10/27 06:50:27;;;;;;;75.30;51.53;;;19.10;80.20;;;;;;4944244;28;91172;-56
2022/10/27 06:52:53;;;;;;;79.60;51.60;;;19.10;80.40;;;;;;4951672;28;91330;-59
2022/10/27 06:55:19;;;;;;;78.10;51.55;;;19.10;80.60;;;;;;4935255;28;91195;-55
2022/10/27 06:57:44;;;;;;;75.68;51.78;;;19.20;80.70;;;;;;4941419;28;95200;-56
2022/10/27 07:00:11;;;;;;;75.93;52.25;;;19.20;81.00;;;;;;4945737;28;90265;-56
2022/10/27 07:02:37;;;;;;;79.38;52.75;;;19.20;80.90;;;;;;4936683;28;90081;-56
2022/10/27 07:05:03;;;;;;;82.97;52.60;;;19.20;81.10;;;;;;4954788;28;92103;-58
2022/10/27 07:07:29;;;;;;;78.78;52.75;;;19.20;81.10;;;;;;4946049;28;90134;-58
2022/10/27 07:09:55;;;;;;;85.60;53.20;;;19.20;81.30;;;;;;4939800;28;91175;-53
2022/10/27 07:12:20;;;;;;;83.53;53.60;;;19.30;81.10;;;;;;4948044;28;89891;-55
2022/10/27 07:14:46;;;;;;;88.40;53.13;;;19.30;81.00;;;;;;4955542;28;90216;-52
2022/10/27 07:17:13;;;;;;;81.45;53.22;;;19.30;81.10;;;;;;4947080;28;89998;-54
2022/10/27 07:19:40;;;;;;;87.65;53.70;;;19.30;81.20;;;;;;4945013;28;93189;-57
2022/10/27 07:22:06;;;;;;;85.63;52.97;;;19.20;81.30;;;;;;4944823;28;91362;-53
2022/10/27 07:24:31;;;;;;;79.80;53.00;;;19.30;81.50;;;;;;4945732;28;90079;-53
2022/10/27 07:26:57;;;;;;;83.72;52.85;;;19.30;81.30;;;;;;4947557;28;90130;-56
2022/10/27 07:29:23;;;;;;;79.95;53.28;;;19.30;81.20;;;;;;4949081;28;91379;-54
2022/10/27 07:31:48;;;;;;;78.20;53.15;;;19.30;80.90;;;;;;4954466;28;91673;-55
2022/10/27 07:34:14;;;;;;;81.57;52.78;;;19.30;81.00;;;;;;4956466;28;90043;-53
2022/10/27 07:36:40;;;;;;;84.43;52.80;;;19.30;81.10;;;;;;4950628;28;89204;-52
2022/10/27 07:39:06;;;;;;;82.30;52.67;;;19.30;81.10;;;;;;4944491;28;90727;-52
2022/10/27 07:41:32;;;;;;;82.65;52.47;;;19.30;81.10;;;;;;4953779;28;89941;-51
2022/10/27 07:43:58;;;;;;;79.30;52.95;;;19.30;80.80;;;;;;4940471;28;91747;-57
2022/10/27 07:46:23;;;;;;;79.55;53.00;;;19.30;80.90;;;;;;4949112;28;89739;-54
2022/10/27 07:48:49;;;;;;;80.78;52.38;;;19.30;80.60;;;;;;4951752;28;90212;-54
2022/10/27 07:51:15;;;;;;;82.00;52.63;;;19.30;80.30;;;;;;4949615;28;89891;-50
2022/10/27 07:53:41;;;;;;;77.18;52.33;;;19.30;80.90;;;;;;4946252;28;93101;-55
2022/10/27 07:56:06;;;;;;;77.07;52.20;;;19.30;80.00;;;;;;4948444;28;90019;-54
2022/10/27 07:58:32;;;;;;;78.10;52.45;;;19.30;80.00;;;;;;4946382;28;90853;-54
2022/10/27 08:00:59;;;;;;;79.13;52.85;;;19.30;79.90;;;;;;4953513;28;89002;-54
2022/10/27 08:03:30;;;;;;;82.43;52.50;;;19.30;80.00;;;;;;4943081;28;93211;-57
2022/10/27 08:06:02;;;;;;;81.57;52.72;;;19.40;80.30;;;;;;4951002;28;91182;-58
2022/10/27 08:08:30;;;;;;;79.05;52.28;;;19.40;80.40;;;;;;4953790;28;91370;-54
2022/10/27 08:10:55;;;;;;;76.70;52.42;;;19.40;80.40;;;;;;4953940;28;90336;-51
2022/10/27 08:13:21;;;;;;;78.75;52.17;;;19.40;80.40;;;;;;4943165;28;92960;-56
2022/10/27 08:15:47;;;;;;;77.07;52.35;;;19.40;80.30;;;;;;4946696;28;90150;-57
2022/10/27 08:18:13;;;;;;;77.03;52.08;;;19.40;80.30;;;;;;4955697;28;89811;-58
2022/10/27 08:20:45;;;;;;;81.10;52.80;;;19.40;80.10;;;;;;4941466;28;90861;-58
2022/10/27 08:23:13;;;;;;;79.32;52.40;;;19.40;80.10;;;;;;4953405;28;89989;-58
2022/10/27 08:25:39;;;;;;;81.50;52.50;;;19.50;80.10;;;;;;4955005;28;89572;-59
2022/10/27 08:28:05;;;;;;;76.63;52.25;;;19.50;80.00;;;;;;4946229;28;92710;-54
2022/10/27 08:30:33;;;;;;;74.45;51.88;;;19.50;79.70;;;;;;4944833;28;90357;-56
2022/10/27 08:33:00;;;;;;;76.60;52.70;;;19.50;79.50;;;;;;4955100;28;93578;-57
2022/10/27 08:35:27;;;;;;;76.88;52.55;;;19.50;79.40;;;;;;4955469;28;90978;-55
2022/10/27 08:38:03;;;;;;;76.97;52.65;;;19.50;79.40;;;;;;4956881;28;91202;-56
2022/10/27 08:41:08;;;;;;;81.45;52.80;;;19.50;79.20;;;;;;4947245;28;90000;-54
2022/10/27 08:44:06;;;;;;;79.22;52.55;;;19.50;79.10;;;;;;4946600;28;90309;-56
2022/10/27 08:47:03;;;;;;;80.43;52.97;;;19.50;79.00;;;;;;4956025;28;91671;-55
2022/10/27 08:49:44;;;;;;;77.15;53.00;;;19.50;78.80;;;;;;4944852;28;91558;-55
2022/10/27 08:52:10;;;;;;;81.03;53.28;;;19.60;78.80;;;;;;4953267;28;91750;-56
2022/10/27 08:54:37;;;;;;;87.30;53.72;;;19.50;78.80;;;;;;4942250;28;91047;-57
2022/10/27 08:57:05;;;;;;;83.75;54.08;;;19.50;78.60;;;;;;4949118;28;91020;-55
2022/10/27 08:59:33;;;;;;;87.47;53.63;;;19.60;78.70;;;;;;4944752;28;92422;-51
2022/10/27 09:02:40;;;;;;;82.72;53.72;;;19.50;78.70;;;;;;4950299;28;93958;-56
2022/10/27 09:05:32;;;;;;;82.57;53.45;;;19.60;78.80;;;;;;4957536;28;90455;-56
2022/10/27 09:08:18;;;;;;;84.40;53.70;;;19.60;78.60;;;;;;4939779;28;90164;-55
2022/10/27 09:11:02;;;;;;;81.95;53.60;;;19.60;78.50;;;;;;4955288;28;90038;-55
2022/10/27 09:13:44;;;;;;;80.82;53.13;;;19.60;78.50;;;;;;4954230;28;94097;-55
2022/10/27 09:16:15;;;;;;;80.03;53.80;;;19.60;78.40;;;;;;4955770;28;90087;-56
2022/10/27 09:18:48;;;;;;;82.03;53.38;;;19.60;78.50;;;;;;4956035;28;89329;-55
2022/10/27 09:21:19;;;;;;;82.93;53.75;;;19.60;78.30;;;;;;4947629;28;94104;-57
2022/10/27 09:23:53;;;;;;;81.95;53.80;;;19.60;78.30;;;;;;4954592;28;89921;-56
2022/10/27 09:26:24;;;;;;;79.10;53.45;;;19.60;78.20;;;;;;4958314;28;90944;-55
2022/10/27 09:28:52;;;;;;;79.80;53.42;;;19.60;78.20;;;;;;4954942;28;90386;-55
2022/10/27 09:31:38;;;;;;;84.80;53.70;;;19.60;78.20;;;;;;4955784;28;89966;-55
2022/10/27 09:34:13;;;;;;;79.82;53.72;;;19.60;78.10;;;;;;4953222;28;91185;-57
2022/10/27 09:36:39;;;;;;;81.57;53.42;;;19.70;78.10;;;;;;4955328;28;89738;-55
2022/10/27 09:39:05;;;;;;;82.72;53.55;;;19.70;78.00;;;;;;4958442;28;89748;-56
2022/10/27 09:41:31;;;;;;;79.55;54.10;;;19.70;78.00;;;;;;4950840;28;89881;-56
2022/10/27 09:43:59;;;;;;;85.15;53.45;;;19.70;77.90;;;;;;4957017;28;90679;-56
2022/10/27 09:46:28;;;;;;;79.97;53.38;;;19.70;77.80;;;;;;4952424;28;90035;-56
2022/10/27 09:49:05;;;;;;;83.22;53.65;;;19.80;77.80;;;;;;4948690;28;91977;-56
2022/10/27 09:51:47;;;;;;;82.50;53.90;;;19.80;77.70;;;;;;4952889;28;91375;-56
2022/10/27 09:54:31;;;;;;;78.93;53.30;;;19.80;77.70;;;;;;4959614;28;90218;-55
2022/10/27 09:57:09;;;;;;;79.85;52.97;;;19.80;77.60;;;;;;4952463;28;89912;-55
2022/10/27 09:59:36;;;;;;;80.97;53.42;;;19.80;77.60;;;;;;4952080;28;90812;-55
2022/10/27 10:02:05;;;;;;;81.68;53.40;;;19.80;77.60;;;;;;4949909;28;91457;-56
2022/10/27 10:04:41;;;;;;;81.80;53.22;;;19.80;77.60;;;;;;4957579;28;93234;-54
2022/10/27 10:07:32;;;;;;;79.75;53.67;;;19.80;77.60;;;;;;4945588;28;94983;-56
2022/10/27 10:10:06;;;;;;;79.35;53.70;;;19.80;77.60;;;;;;4952483;28;89289;-55
2022/10/27 10:12:31;;;;;;;80.10;53.58;;;19.80;77.70;;;;;;4953588;28;90251;-56
2022/10/27 10:15:09;;;;;;;82.20;53.42;;;19.90;77.80;;;;;;4950026;28;90611;-55
2022/10/27 10:17:36;;;;;;;81.45;53.60;;;19.80;77.60;;;;;;4943397;28;91064;-56
2022/10/27 10:20:05;;;;;;;81.13;53.10;;;19.90;77.60;;;;;;4952827;28;92079;-56
2022/10/27 10:22:34;;;;;;;80.60;53.13;;;19.90;77.50;;;;;;4947309;28;92113;-55
2022/10/27 10:25:33;;;;;;;80.43;53.13;;;19.90;77.40;;;;;;4948863;28;91987;-56
2022/10/27 10:28:05;;;;;;;79.55;53.47;;;19.90;77.30;;;;;;4946739;28;90557;-55
2022/10/27 10:30:38;;;;;;;78.20;52.95;;;19.90;77.30;;;;;;4952090;28;90005;-56
2022/10/27 10:33:05;;;;;;;81.72;53.83;;;19.90;77.30;;;;;;4946676;28;91722;-55
2022/10/27 10:35:48;;;;;;;80.32;53.10;;;19.90;77.30;;;;;;4948784;28;89693;-54
2022/10/27 10:38:38;;;;;;;78.53;53.55;;;20.00;77.40;;;;;;4952207;28;90550;-55
2022/10/27 10:41:11;;;;;;;77.30;53.33;;;19.90;77.40;;;;;;4956088;28;89945;-54
2022/10/27 10:43:37;;;;;;;81.10;52.95;;;20.00;77.40;;;;;;4950400;28;91502;-55
2022/10/27 10:46:05;;;;;;;77.32;52.72;;;19.90;77.30;;;;;;4953253;28;92193;-56
2022/10/27 10:48:39;;;;;;;80.72;53.20;;;19.90;77.50;;;;;;4940344;28;93123;-56
2022/10/27 10:51:06;;;;;;;78.80;52.95;;;19.90;77.50;;;;;;4949689;28;90023;-53
2022/10/27 10:53:38;;;;;;;77.93;53.13;;;20.00;77.60;;;;;;4956775;28;90382;-56
2022/10/27 10:56:28;;;;;;;77.50;53.13;;;20.00;77.70;;;;;;4944436;28;90803;-53
2022/10/27 10:59:15;;;;;;;79.90;53.10;;;20.00;77.80;;;;;;4951010;28;90617;-50
2022/10/27 11:02:01;;;;;;;78.55;53.15;;;20.00;77.60;;;;;;4950497;28;89373;-53
2022/10/27 11:04:31;;;;;;;77.75;52.90;;;20.00;77.70;;;;;;4947245;28;100977;-54
2022/10/27 11:06:59;;;;;;;78.15;53.15;;;20.00;77.50;;;;;;4949360;28;90025;-51
2022/10/27 11:09:29;;;;;;;83.50;53.38;;;20.10;77.40;;;;;;4943870;28;93590;-52
2022/10/27 11:11:56;;;;;;;79.05;53.30;;;20.10;77.40;;;;;;4947385;28;91174;-52
2022/10/27 11:14:25;;;;;;;81.00;53.38;;;20.10;77.30;;;;;;4949196;28;90283;-51
2022/10/27 11:16:57;;;;;;;79.05;53.05;;;20.00;77.40;;;;;;4940367;28;93513;-53
2022/10/27 11:19:26;;;;;;;79.90;53.17;;;20.10;77.60;;;;;;4939609;28;90963;-58
2022/10/27 11:22:11;;;;;;;79.72;53.45;;;20.10;77.80;;;;;;4946496;28;90733;-56
2022/10/27 11:24:44;;;;;;;79.53;53.05;;;20.10;78.00;;;;;;4941112;28;90421;-56
2022/10/27 11:27:17;;;;;;;80.15;53.17;;;20.10;78.10;;;;;;4948253;28;89454;-56
2022/10/27 11:30:09;;;;;;;79.07;53.10;;;20.10;78.20;;;;;;4946693;28;91122;-53
2022/10/27 11:32:42;;;;;;;78.55;52.78;;;20.10;78.30;;;;;;4955170;28;91210;-49
2022/10/27 11:35:19;;;;;;;81.05;53.13;;;20.00;78.40;;;;;;4945919;28;92877;-48
2022/10/27 11:37:57;;;;;;;79.00;52.47;;;20.10;78.40;;;;;;4953635;28;90243;-49
2022/10/27 11:40:34;;;;;;;78.85;53.17;;;20.10;78.40;;;;;;4945422;28;89756;-50
2022/10/27 11:43:06;;;;;;;79.68;53.08;;;20.00;78.30;;;;;;4951186;28;93751;-47
2022/10/27 11:45:42;;;;;;;79.22;53.28;;;20.10;78.30;;;;;;4941238;28;90227;-53
2022/10/27 11:48:24;;;;;;;77.20;52.75;;;20.10;78.40;;;;;;4933549;28;92122;-51
2022/10/27 11:50:59;;;;;;;79.95;53.25;;;20.10;78.40;;;;;;4934665;28;90220;-56
2022/10/27 11:53:25;;;;;;;78.30;52.63;;;20.10;78.60;;;;;;4931289;28;92149;-56
2022/10/27 11:56:03;;;;;;;78.05;53.40;;;20.00;78.60;;;;;;4933519;28;90279;-53
2022/10/27 11:58:58;;;;;;;78.75;53.45;;;20.10;78.40;;;;;;4933514;28;90707;-49
2022/10/27 12:01:30;;;;;;;78.25;52.72;;;20.00;77.90;;;;;;4926167;28;91052;-53
2022/10/27 12:04:03;;;;;;;78.80;53.53;;;20.10;78.30;;;;;;4937933;28;92360;-52
2022/10/27 12:06:37;;;;;;;77.97;53.00;;;20.10;78.50;;;;;;4925760;28;91137;-54
2022/10/27 12:09:22;;;;;;;80.03;53.50;;;20.10;78.40;;;;;;4928786;28;92611;-55
2022/10/27 12:12:21;;;;;;;79.13;53.38;;;20.10;78.20;;;;;;4932045;28;90396;-50
2022/10/27 12:15:01;;;;;;;76.50;53.03;;;20.10;77.90;;;;;;4933692;28;90112;-51
2022/10/27 12:17:36;;;;;;;79.10;53.08;;;20.10;77.90;;;;;;4931440;28;94483;-55
2022/10/27 12:20:03;;;;;;;78.13;52.83;;;20.00;77.90;;;;;;4938608;28;91691;-50
2022/10/27 12:22:58;;;;;;;77.30;52.78;;;20.10;77.90;;;;;;4933816;28;91699;-54
2022/10/27 12:25:42;;;;;;;77.38;53.30;;;20.10;77.80;;;;;;4922930;28;92619;-52
2022/10/27 12:28:12;;;;;;;76.80;52.47;;;20.10;77.70;;;;;;4936947;28;92101;-55
2022/10/27 12:30:41;;;;;;;76.53;52.70;;;20.10;77.60;;;;;;4938452;28;91345;-54
2022/10/27 12:33:33;;;;;;;77.90;53.13;;;20.10;77.60;;;;;;4933861;28;90046;-55
2022/10/27 12:36:33;;;;;;;76.40;52.80;;;20.10;77.50;;;;;;4931913;28;95461;-53
2022/10/27 12:39:23;;;;;;;78.72;52.83;;;20.10;77.40;;;;;;4941780;28;92624;-53
2022/10/27 12:42:07;;;;;;;79.32;53.38;;;20.10;77.30;;;;;;4937674;28;92078;-53
2022/10/27 12:44:50;;;;;;;76.70;52.42;;;20.10;77.30;;;;;;4941843;28;89924;-51